Time;durP1;ratioP1;P1;durP2;ratioP2;P2;SDS_P1;SDS_P2;PMS_P1;PMS_P2;Temp;Humidity;BMP_temperature;BMP_pressure;BME280_temperature;BME280_humidity;BME280_pressure;Samples;Min_cycle;Max_cycle;Signal;HPM_P1;HPM_P2
2024/01/15 00:01:27;;;;;;;17.17;9.97;;;-0.60;99.90;;;;;;4958923;29;20430;-78
2024/01/15 00:04:11;;;;;;;16.87;11.47;;;-0.60;99.90;;;;;;5008408;28;20545;-77
2024/01/15 00:07:05;;;;;;;18.57;10.30;;;-0.60;99.90;;;;;;5059206;28;20430;-77
2024/01/15 00:47:36;;;;;;;;;;;;;;;;;;;;;
2024/01/15 01:09:47;;;;;;;;;;;;;;;;;;;;;
2024/01/15 01:36:05;;;;;;;14.20;9.20;;;-0.50;99.90;;;;;;4771620;29;20442;-79
2024/01/15 02:44:36;;;;;;;;;;;;;;;;;;;;;
2024/01/15 04:35:20;;;;;;;;;;;;;;;;;;;;;
2024/01/15 05:51:42;;;;;;;9.80;6.37;;;0.70;99.90;;;;;;4736664;30;20518;-77
2024/01/15 06:04:12;;;;;;;10.67;7.53;;;0.80;99.90;;;;;;4811136;29;20976;-81
2024/01/15 06:13:04;;;;;;;11.93;7.90;;;1.00;99.90;;;;;;4953133;29;20869;-81
2024/01/15 06:15:57;;;;;;;11.30;8.40;;;0.80;99.90;;;;;;4964237;29;20462;-80
2024/01/15 06:18:55;;;;;;;13.30;9.67;;;0.80;99.90;;;;;;4961676;29;21030;-79
2024/01/15 06:21:50;;;;;;;16.07;9.60;;;0.80;99.90;;;;;;4962262;28;20525;-79
2024/01/15 06:34:26;;;;;;;11.00;8.40;;;0.80;99.90;;;;;;4984229;28;20480;-81
2024/01/15 07:13:15;;;;;;;11.63;7.20;;;0.90;99.90;;;;;;4602439;31;20470;-80
2024/01/15 08:11:45;;;;;;;;;;;;;;;;;;;;;
2024/01/15 08:21:49;;;;;;;;;;;;;;;;;;;;;
2024/01/15 10:05:01;;;;;;;;;;;;;;;;;;;;;
2024/01/15 13:16:09;;;;;;;6.57;5.93;;;1.50;99.90;;;;;;4949440;29;20509;-82
2024/01/15 13:18:49;;;;;;;7.53;5.73;;;1.50;99.90;;;;;;4981102;28;20481;-81
2024/01/15 13:24:40;;;;;;;6.37;5.40;;;1.40;99.90;;;;;;4973662;28;20453;-81
2024/01/15 13:27:15;;;;;;;6.83;6.13;;;1.40;99.90;;;;;;4985619;28;20477;-81
2024/01/15 13:32:35;;;;;;;6.17;5.53;;;1.50;99.90;;;;;;4978852;28;20446;-80
2024/01/15 13:35:05;;;;;;;7.10;5.73;;;1.50;99.90;;;;;;4988050;28;20447;-80
2024/01/15 13:37:50;;;;;;;6.93;5.80;;;1.20;99.90;;;;;;4986308;28;20465;-80
2024/01/15 13:40:19;;;;;;;8.37;5.70;;;1.50;99.90;;;;;;4970921;28;20508;-81
2024/01/15 13:42:54;;;;;;;5.23;4.60;;;1.60;99.90;;;;;;4986432;28;20446;-79
2024/01/15 13:45:23;;;;;;;6.37;5.47;;;1.40;99.90;;;;;;4983542;28;20456;-81
2024/01/15 13:47:53;;;;;;;12.43;6.43;;;1.40;99.90;;;;;;4983978;28;20517;-80
2024/01/15 13:50:24;;;;;;;5.43;4.87;;;1.40;99.90;;;;;;4980618;28;20450;-80
2024/01/15 13:52:53;;;;;;;7.40;6.60;;;1.40;99.90;;;;;;4977913;28;20486;-80
2024/01/15 14:09:28;;;;;;;5.30;4.57;;;1.30;99.90;;;;;;4792549;29;20487;-82
2024/01/15 14:12:45;;;;;;;7.90;5.13;;;1.40;99.90;;;;;;4876130;28;20481;-81
2024/01/15 14:15:49;;;;;;;7.60;5.30;;;1.10;99.90;;;;;;4965663;28;20446;-81
2024/01/15 14:19:22;;;;;;;;;;;;;;;;;;;;;
2024/01/15 14:25:24;;;;;;;5.70;4.60;;;1.50;99.90;;;;;;4943050;28;20462;-81
2024/01/15 14:27:57;;;;;;;4.80;4.50;;;1.50;99.90;;;;;;4981857;28;20461;-79
2024/01/15 14:30:41;;;;;;;5.17;4.70;;;1.50;99.90;;;;;;4980503;28;20541;-82
2024/01/15 14:33:29;;;;;;;4.73;4.30;;;1.60;99.90;;;;;;4980209;28;20499;-79
2024/01/15 14:35:58;;;;;;;4.87;4.47;;;1.60;99.90;;;;;;4980022;28;20453;-80
2024/01/15 14:38:34;;;;;;;6.60;4.60;;;1.50;99.90;;;;;;4967823;28;20466;-80
2024/01/15 14:41:20;;;;;;;5.00;4.47;;;1.50;99.90;;;;;;4978852;28;20512;-82
2024/01/15 14:43:49;;;;;;;5.83;5.33;;;1.40;99.90;;;;;;4980371;28;20547;-80
2024/01/15 14:46:18;;;;;;;7.20;5.53;;;1.40;99.90;;;;;;4977606;28;20473;-81
2024/01/15 14:48:46;;;;;;;6.40;5.80;;;1.60;99.90;;;;;;4983448;28;20453;-80
2024/01/15 14:51:13;;;;;;;7.30;6.50;;;1.40;99.90;;;;;;4980106;28;20453;-81
2024/01/15 14:53:40;;;;;;;7.27;6.57;;;1.60;99.90;;;;;;4981911;28;20459;-80
2024/01/15 14:56:08;;;;;;;7.30;6.60;;;1.40;99.90;;;;;;4961634;28;20470;-80
2024/01/15 14:58:36;;;;;;;8.97;6.77;;;1.10;99.90;;;;;;4976233;28;20464;-79
2024/01/15 15:01:10;;;;;;;8.77;7.93;;;0.80;99.90;;;;;;4973029;28;20454;-80
2024/01/15 15:03:45;;;;;;;8.33;7.13;;;1.10;99.90;;;;;;4968086;28;20535;-79
2024/01/15 15:06:27;;;;;;;8.67;7.73;;;1.00;99.90;;;;;;4977397;28;20454;-82
2024/01/15 15:08:55;;;;;;;8.40;7.57;;;1.00;99.90;;;;;;4979139;28;20535;-79
2024/01/15 15:11:24;;;;;;;9.37;7.60;;;1.00;99.90;;;;;;4979498;28;20437;-81
2024/01/15 15:13:52;;;;;;;8.60;7.63;;;1.00;99.90;;;;;;4983008;28;20453;-78
2024/01/15 15:16:23;;;;;;;8.70;7.90;;;1.00;99.90;;;;;;4963177;29;20450;-80
2024/01/15 15:18:52;;;;;;;9.83;8.83;;;0.90;99.90;;;;;;4963461;29;20508;-80
2024/01/15 15:21:19;;;;;;;11.30;8.13;;;1.00;99.90;;;;;;4976770;28;20456;-79
2024/01/15 15:23:47;;;;;;;8.60;7.73;;;1.20;99.90;;;;;;4984458;28;20453;-80
2024/01/15 15:26:15;;;;;;;11.93;8.53;;;1.00;99.90;;;;;;4979960;28;20461;-80
2024/01/15 15:28:45;;;;;;;10.83;8.10;;;1.10;99.90;;;;;;4979190;28;20463;-80
2024/01/15 15:31:13;;;;;;;12.90;8.77;;;1.10;99.90;;;;;;4983267;28;20477;-78
2024/01/15 15:33:40;;;;;;;8.20;7.23;;;1.20;99.90;;;;;;4983197;28;20478;-78
2024/01/15 15:36:09;;;;;;;7.97;6.93;;;1.10;99.90;;;;;;4967794;28;20540;-81
2024/01/15 15:38:37;;;;;;;10.17;8.40;;;1.10;99.90;;;;;;4982659;28;20481;-81
2024/01/15 15:41:05;;;;;;;10.70;8.50;;;1.10;99.90;;;;;;4983376;28;20491;-79
2024/01/15 15:43:32;;;;;;;8.93;8.00;;;0.90;99.90;;;;;;4983925;28;20473;-79
2024/01/15 15:45:59;;;;;;;8.97;8.03;;;1.10;99.90;;;;;;4982644;28;20857;-78
2024/01/15 15:48:27;;;;;;;8.47;7.67;;;1.10;99.90;;;;;;4986327;28;20449;-80
2024/01/15 15:51:01;;;;;;;10.30;7.47;;;1.10;99.90;;;;;;4983643;28;20793;-79
2024/01/15 15:53:36;;;;;;;7.93;7.13;;;1.10;99.90;;;;;;4986872;28;20539;-80
2024/01/15 15:59:25;;;;;;;7.60;6.83;;;1.10;99.90;;;;;;4983955;28;20600;-80
2024/01/15 16:01:56;;;;;;;8.33;7.37;;;1.10;99.90;;;;;;4986222;28;20472;-80
2024/01/15 16:04:25;;;;;;;8.03;6.70;;;1.30;99.90;;;;;;4986609;28;20458;-80
2024/01/15 16:07:28;;;;;;;8.30;7.17;;;1.10;99.90;;;;;;4986353;28;20441;-79
2024/01/15 16:10:09;;;;;;;7.73;6.57;;;0.80;99.90;;;;;;4986436;28;20484;-80
2024/01/15 16:12:39;;;;;;;7.43;6.37;;;1.10;99.90;;;;;;4986893;28;20531;-79
2024/01/15 16:15:19;;;;;;;7.83;7.07;;;1.00;99.90;;;;;;4986227;28;20469;-78
2024/01/15 16:20:31;;;;;;;7.60;6.80;;;1.00;99.90;;;;;;4984849;28;20484;-78
2024/01/15 16:22:58;;;;;;;7.70;6.70;;;1.20;99.90;;;;;;4984580;28;20470;-79
2024/01/15 16:25:27;;;;;;;7.13;6.43;;;1.00;99.90;;;;;;4984582;28;20452;-80
2024/01/15 16:27:54;;;;;;;7.90;6.67;;;1.00;99.90;;;;;;4982810;28;20448;-79
2024/01/15 16:30:22;;;;;;;7.67;6.57;;;1.10;99.90;;;;;;4979766;28;20446;-79
2024/01/15 16:32:49;;;;;;;8.10;7.30;;;1.00;99.90;;;;;;4980535;28;20473;-79
2024/01/15 16:35:20;;;;;;;7.20;6.53;;;1.00;99.90;;;;;;4979161;28;21005;-77
2024/01/15 16:37:47;;;;;;;8.27;6.57;;;1.00;99.90;;;;;;4979114;28;20505;-79
2024/01/15 16:40:14;;;;;;;8.17;7.30;;;1.00;99.90;;;;;;4977528;28;20527;-79
2024/01/15 16:42:44;;;;;;;9.07;7.27;;;1.00;99.90;;;;;;4980702;28;20480;-77
2024/01/15 16:45:11;;;;;;;6.83;6.13;;;0.90;99.90;;;;;;4987825;28;20482;-79
2024/01/15 16:47:40;;;;;;;7.60;6.90;;;0.70;99.90;;;;;;4986362;28;20449;-80
2024/01/15 16:50:10;;;;;;;7.50;6.27;;;0.90;99.90;;;;;;4986747;28;20453;-78
2024/01/15 16:52:43;;;;;;;7.43;5.63;;;0.90;99.90;;;;;;4984222;28;20461;-79
2024/01/15 16:55:17;;;;;;;8.93;6.17;;;0.90;99.90;;;;;;4984611;28;20775;-77
2024/01/15 16:57:47;;;;;;;6.50;5.50;;;0.90;99.90;;;;;;4983232;28;20464;-79
2024/01/15 17:00:16;;;;;;;6.70;6.10;;;0.90;99.90;;;;;;4983750;28;20504;-76
2024/01/15 17:02:49;;;;;;;7.27;6.47;;;0.60;99.90;;;;;;4983946;28;20469;-77
2024/01/15 17:05:21;;;;;;;7.50;5.93;;;0.90;99.90;;;;;;4984219;28;20449;-80
2024/01/15 17:07:51;;;;;;;8.57;6.33;;;0.90;99.90;;;;;;4983267;28;20497;-79
2024/01/15 17:10:26;;;;;;;7.10;6.27;;;0.90;99.90;;;;;;4982249;28;20508;-79
2024/01/15 17:13:03;;;;;;;6.47;5.73;;;0.90;99.90;;;;;;4981973;28;20483;-78
2024/01/15 17:15:32;;;;;;;6.30;5.73;;;0.90;99.90;;;;;;4980387;28;20891;-80
2024/01/15 17:18:05;;;;;;;9.77;7.20;;;0.80;99.90;;;;;;4971821;28;20869;-79
2024/01/15 17:20:32;;;;;;;8.03;7.13;;;0.80;99.90;;;;;;4979211;28;20484;-80
2024/01/15 17:23:00;;;;;;;7.67;6.50;;;0.80;99.90;;;;;;4981404;28;20501;-78
2024/01/15 17:25:27;;;;;;;8.10;6.90;;;0.80;99.90;;;;;;4980728;28;20445;-78
2024/01/15 17:27:57;;;;;;;7.67;6.83;;;0.80;99.90;;;;;;4975252;28;20456;-78
2024/01/15 17:30:28;;;;;;;8.30;7.10;;;1.10;99.90;;;;;;4970209;28;20452;-77
2024/01/15 17:32:56;;;;;;;10.63;7.17;;;0.90;99.90;;;;;;4975794;28;20469;-80
2024/01/15 17:35:24;;;;;;;9.90;8.20;;;0.90;99.90;;;;;;4974938;28;20456;-79
2024/01/15 17:37:51;;;;;;;7.73;6.93;;;1.10;99.90;;;;;;4967338;28;20459;-80
2024/01/15 17:40:24;;;;;;;8.90;6.80;;;0.90;99.90;;;;;;4978370;28;20477;-81
2024/01/15 17:42:51;;;;;;;7.83;6.93;;;0.80;99.90;;;;;;4964179;28;20533;-80
2024/01/15 17:45:20;;;;;;;6.67;6.03;;;1.00;99.90;;;;;;4971328;28;20545;-80
2024/01/15 17:47:49;;;;;;;8.20;7.00;;;0.80;99.90;;;;;;4977757;28;21018;-79
2024/01/15 17:50:19;;;;;;;7.23;6.10;;;0.80;99.90;;;;;;4979823;28;20455;-79
2024/01/15 17:52:47;;;;;;;8.40;6.70;;;0.90;99.90;;;;;;4973516;28;20643;-79
2024/01/15 17:55:17;;;;;;;6.70;5.70;;;0.80;99.90;;;;;;4959057;29;20453;-79
2024/01/15 17:57:48;;;;;;;7.37;6.37;;;0.80;99.90;;;;;;4970022;28;20974;-78
2024/01/15 18:00:21;;;;;;;6.00;4.97;;;0.80;99.90;;;;;;4966358;28;20477;-79
2024/01/15 18:02:55;;;;;;;7.10;6.40;;;0.80;99.90;;;;;;4980399;28;20847;-79
2024/01/15 18:05:23;;;;;;;8.00;6.60;;;0.90;99.90;;;;;;4976884;28;20813;-80
2024/01/15 18:07:55;;;;;;;7.77;6.07;;;0.90;99.90;;;;;;4980489;28;20952;-78
2024/01/15 18:10:27;;;;;;;6.40;5.80;;;0.80;99.90;;;;;;4969193;28;20489;-78
2024/01/15 18:13:05;;;;;;;7.57;6.60;;;0.80;99.90;;;;;;4974040;28;20501;-78
2024/01/15 18:15:34;;;;;;;8.10;6.37;;;0.80;99.90;;;;;;4974369;28;20506;-79
2024/01/15 18:18:02;;;;;;;6.73;5.97;;;0.90;99.90;;;;;;4979349;28;20525;-80
2024/01/15 18:20:36;;;;;;;7.30;5.87;;;0.80;99.90;;;;;;4969582;28;20566;-80
2024/01/15 18:23:04;;;;;;;7.80;6.80;;;0.70;99.90;;;;;;4959169;28;20615;-79
2024/01/15 18:25:32;;;;;;;7.57;6.43;;;0.70;99.90;;;;;;4974167;28;20437;-80
2024/01/15 18:28:02;;;;;;;6.90;6.20;;;0.60;99.90;;;;;;4979819;28;20453;-78
2024/01/15 18:30:32;;;;;;;9.10;6.77;;;0.60;99.90;;;;;;4981303;28;20456;-80
2024/01/15 18:33:29;;;;;;;7.47;6.77;;;0.60;99.90;;;;;;4976063;28;20466;-79
2024/01/15 18:36:07;;;;;;;7.23;6.13;;;0.60;99.90;;;;;;4966207;28;20455;-78
2024/01/15 18:38:35;;;;;;;8.00;5.77;;;0.80;99.90;;;;;;4978430;28;20441;-79
2024/01/15 18:41:08;;;;;;;7.97;5.90;;;0.20;99.90;;;;;;4977335;28;20484;-81
2024/01/15 18:43:36;;;;;;;7.50;6.20;;;0.50;99.90;;;;;;4977031;28;20486;-80
2024/01/15 18:46:08;;;;;;;6.00;5.40;;;0.50;99.90;;;;;;4987861;28;20457;-80
2024/01/15 18:48:39;;;;;;;8.50;6.27;;;0.30;99.90;;;;;;4967719;28;20444;-80
2024/01/15 18:51:08;;;;;;;6.20;5.60;;;0.20;99.90;;;;;;4978174;28;20452;-78
2024/01/15 18:53:40;;;;;;;7.17;6.03;;;0.80;99.90;;;;;;4971526;28;20461;-78
2024/01/15 18:56:08;;;;;;;6.73;5.83;;;0.50;99.90;;;;;;4982344;28;20476;-80
2024/01/15 18:58:42;;;;;;;7.30;6.53;;;0.20;99.90;;;;;;4982682;28;20457;-79
2024/01/15 19:01:27;;;;;;;7.07;5.60;;;0.60;99.90;;;;;;4968462;28;20479;-81
2024/01/15 19:04:11;;;;;;;6.27;5.67;;;0.60;99.90;;;;;;4982397;28;20434;-78
2024/01/15 19:09:37;;;;;;;8.33;6.03;;;0.60;99.90;;;;;;4976182;28;20429;-78
2024/01/15 19:12:06;;;;;;;5.67;5.17;;;0.60;99.90;;;;;;4982564;28;20486;-82
2024/01/15 19:14:33;;;;;;;7.83;5.80;;;0.60;99.90;;;;;;4975806;28;20449;-78
2024/01/15 19:17:04;;;;;;;5.53;5.03;;;0.60;99.90;;;;;;4983055;28;20461;-80
2024/01/15 19:19:36;;;;;;;7.43;5.60;;;0.60;99.90;;;;;;4979042;28;20448;-80
2024/01/15 19:22:05;;;;;;;7.80;5.93;;;0.90;99.90;;;;;;4969988;28;20485;-79
2024/01/15 19:24:39;;;;;;;5.97;5.00;;;0.60;99.90;;;;;;4974392;28;20457;-80
2024/01/15 19:27:09;;;;;;;5.27;4.77;;;0.60;99.90;;;;;;4982696;28;20445;-81
2024/01/15 19:29:43;;;;;;;8.67;6.03;;;0.70;99.90;;;;;;4974597;28;20457;-78
2024/01/15 19:32:17;;;;;;;4.23;3.83;;;0.70;99.90;;;;;;4973631;28;20521;-81
2024/01/15 19:35:01;;;;;;;8.80;5.20;;;0.70;99.90;;;;;;4985067;28;20487;-79
2024/01/15 19:37:32;;;;;;;4.93;4.37;;;0.70;99.90;;;;;;4984488;28;20460;-78
2024/01/15 19:40:04;;;;;;;6.20;5.60;;;0.70;99.90;;;;;;4986703;28;20451;-80
2024/01/15 19:42:40;;;;;;;5.60;5.10;;;0.70;99.90;;;;;;4980709;28;20552;-79
2024/01/15 19:45:19;;;;;;;6.20;5.60;;;0.70;99.90;;;;;;4988129;28;20469;-78
2024/01/15 19:47:48;;;;;;;8.10;5.30;;;0.60;99.90;;;;;;4987837;28;20449;-78
2024/01/15 19:50:22;;;;;;;5.00;4.60;;;0.70;99.90;;;;;;4989080;28;20434;-78
2024/01/15 19:53:06;;;;;;;6.80;5.60;;;0.70;99.90;;;;;;4991606;28;20510;-79
2024/01/15 19:55:40;;;;;;;5.20;4.40;;;0.70;99.90;;;;;;4981718;28;20450;-78
2024/01/15 19:58:08;;;;;;;5.60;5.10;;;0.70;99.90;;;;;;4965900;28;20478;-78
2024/01/15 20:00:46;;;;;;;6.03;5.40;;;0.70;99.90;;;;;;4986759;28;20473;-81
2024/01/15 20:03:21;;;;;;;5.00;4.50;;;0.70;99.90;;;;;;4986061;28;20465;-78
2024/01/15 20:05:55;;;;;;;6.33;5.73;;;0.70;99.90;;;;;;4986016;28;20508;-79
2024/01/15 20:08:29;;;;;;;6.00;5.40;;;0.70;99.90;;;;;;4970055;28;20512;-80
2024/01/15 20:11:01;;;;;;;5.30;4.37;;;0.60;99.90;;;;;;4983112;28;20508;-80
2024/01/15 20:13:31;;;;;;;5.13;4.30;;;0.30;99.90;;;;;;4977782;28;21242;-79
2024/01/15 20:16:15;;;;;;;5.90;5.40;;;0.70;99.90;;;;;;4986255;28;20481;-79
2024/01/15 20:18:50;;;;;;;5.90;5.27;;;0.60;99.90;;;;;;4983569;28;20449;-78
2024/01/15 20:29:34;;;;;;;5.13;4.60;;;0.90;99.90;;;;;;4851600;29;20443;-78
2024/01/15 21:09:36;;;;;;;6.40;5.77;;;0.70;99.90;;;;;;4801342;29;20513;-80
2024/01/15 21:19:32;;;;;;;5.47;4.70;;;0.60;99.90;;;;;;4864324;29;20444;-79
2024/01/15 21:22:21;;;;;;;;;;;;;;;;;;;;;
2024/01/15 21:24:59;;;;;;;4.83;4.43;;;0.60;99.90;;;;;;4971679;28;20954;-80
2024/01/15 21:27:54;;;;;;;6.73;5.13;;;0.60;99.90;;;;;;4969137;28;20442;-82
2024/01/15 21:30:35;;;;;;;4.80;4.40;;;0.70;99.90;;;;;;4971615;28;20454;-80
2024/01/15 21:33:19;;;;;;;7.17;5.93;;;0.60;99.90;;;;;;4977427;28;20557;-80
2024/01/15 21:38:45;;;;;;;5.30;4.90;;;0.80;99.90;;;;;;4980744;28;20438;-79
2024/01/15 21:41:24;;;;;;;5.60;5.10;;;0.60;99.90;;;;;;4981207;28;20477;-79
2024/01/15 21:44:13;;;;;;;5.30;4.80;;;0.60;99.90;;;;;;4979306;28;20823;-78
2024/01/15 21:46:51;;;;;;;5.60;5.10;;;0.60;99.90;;;;;;4980751;28;20464;-79
2024/01/15 21:49:32;;;;;;;6.53;5.80;;;0.60;99.90;;;;;;4978737;28;20530;-79
2024/01/15 21:52:07;;;;;;;4.93;4.43;;;0.60;99.90;;;;;;4981310;28;20542;-78
2024/01/15 21:55:02;;;;;;;4.67;4.27;;;0.50;99.90;;;;;;4980683;28;20496;-80
2024/01/15 21:57:42;;;;;;;5.50;4.83;;;0.50;99.90;;;;;;4980584;28;20506;-78
2024/01/15 22:00:21;;;;;;;5.40;4.90;;;0.50;99.90;;;;;;4978512;28;20453;-78
2024/01/15 22:03:08;;;;;;;7.23;5.60;;;0.50;99.90;;;;;;4978863;28;20481;-79
2024/01/15 22:05:43;;;;;;;5.87;5.43;;;0.50;99.90;;;;;;4978882;28;20450;-76
2024/01/15 22:08:24;;;;;;;5.70;5.20;;;0.50;99.90;;;;;;4982101;28;20456;-77
2024/01/15 22:11:17;;;;;;;6.10;5.50;;;0.50;99.90;;;;;;4982668;28;20460;-78
2024/01/15 22:14:15;;;;;;;;;;;;;;;;;;;;;
2024/01/15 22:16:57;;;;;;;5.20;4.70;;;0.50;99.90;;;;;;4982424;28;20842;-78
2024/01/15 22:19:37;;;;;;;6.77;5.20;;;0.40;99.90;;;;;;4980847;28;20926;-77
2024/01/15 22:22:10;;;;;;;5.53;4.93;;;0.40;99.90;;;;;;4978928;28;20481;-77
2024/01/15 22:24:52;;;;;;;7.37;6.60;;;0.20;99.90;;;;;;4978066;28;20456;-77
2024/01/15 22:27:47;;;;;;;5.10;4.70;;;0.40;99.90;;;;;;4977910;28;20488;-80
2024/01/15 22:30:34;;;;;;;8.00;4.80;;;0.40;99.90;;;;;;4978355;28;20786;-77
2024/01/15 22:33:06;;;;;;;4.97;4.60;;;0.40;99.90;;;;;;4979167;28;20477;-77
2024/01/15 22:36:05;;;;;;;5.33;4.83;;;0.40;99.90;;;;;;4981140;28;20802;-80
2024/01/15 22:38:38;;;;;;;5.80;5.30;;;0.40;99.90;;;;;;4981831;28;20458;-79
2024/01/15 22:41:12;;;;;;;5.33;4.83;;;0.40;99.90;;;;;;4983601;28;20548;-79
2024/01/15 22:43:56;;;;;;;6.10;4.60;;;0.20;99.90;;;;;;4979063;28;20477;-78
2024/01/15 22:46:27;;;;;;;7.80;5.27;;;0.40;99.90;;;;;;4981518;28;20451;-79
2024/01/15 22:49:13;;;;;;;5.80;5.30;;;0.10;99.90;;;;;;4981830;28;20507;-80
2024/01/15 22:52:19;;;;;;;5.90;5.30;;;0.40;99.90;;;;;;4982726;28;20477;-78
2024/01/15 22:54:56;;;;;;;5.60;4.40;;;0.40;99.90;;;;;;4983996;28;20449;-78
2024/01/15 22:57:26;;;;;;;9.10;5.10;;;0.40;99.90;;;;;;4982198;28;20425;-78
2024/01/15 23:00:23;;;;;;;8.70;5.33;;;0.40;99.90;;;;;;4983946;28;20485;-80
2024/01/15 23:03:06;;;;;;;5.80;5.30;;;0.30;99.90;;;;;;4984265;28;20486;-77
2024/01/15 23:05:53;;;;;;;5.80;5.30;;;0.30;99.90;;;;;;4984560;28;20465;-78
2024/01/15 23:08:48;;;;;;;5.73;5.10;;;0.30;99.90;;;;;;4983800;28;20441;-79
2024/01/15 23:11:19;;;;;;;6.10;5.50;;;0.30;99.90;;;;;;4984648;28;20461;-79
2024/01/15 23:13:46;;;;;;;5.67;5.10;;;0.30;99.90;;;;;;4984500;28;20480;-80
2024/01/15 23:16:20;;;;;;;5.03;4.63;;;0.30;99.90;;;;;;4984076;28;20450;-78
2024/01/15 23:18:56;;;;;;;5.07;4.60;;;0.50;99.90;;;;;;4982329;28;20525;-78
2024/01/15 23:21:32;;;;;;;5.57;5.17;;;0.30;99.90;;;;;;4978733;28;21050;-78
2024/01/15 23:24:03;;;;;;;5.93;5.33;;;0.30;99.90;;;;;;4979232;28;20461;-78
2024/01/15 23:26:42;;;;;;;5.80;4.93;;;0.30;99.90;;;;;;4977712;28;20449;-77
2024/01/15 23:29:12;;;;;;;5.97;5.40;;;0.00;99.90;;;;;;4976313;28;20576;-79
2024/01/15 23:31:57;;;;;;;6.10;5.10;;;0.60;99.90;;;;;;4975736;28;20465;-79
2024/01/15 23:34:35;;;;;;;6.57;5.20;;;0.30;99.90;;;;;;4978685;28;20426;-77
2024/01/15 23:37:17;;;;;;;5.63;5.13;;;0.30;99.90;;;;;;4979284;28;20520;-78
2024/01/15 23:39:54;;;;;;;6.27;5.33;;;0.30;99.90;;;;;;4979465;28;20448;-78
2024/01/15 23:42:33;;;;;;;5.10;4.70;;;0.30;99.90;;;;;;4978881;28;20567;-78
2024/01/15 23:45:11;;;;;;;7.33;5.40;;;0.30;99.90;;;;;;4980173;28;20480;-79
2024/01/15 23:47:41;;;;;;;6.23;4.80;;;0.30;99.90;;;;;;4978911;28;20503;-78
2024/01/15 23:50:17;;;;;;;5.53;5.03;;;0.00;99.90;;;;;;4979043;28;21010;-77
2024/01/15 23:52:51;;;;;;;6.70;5.27;;;0.60;99.90;;;;;;4978255;28;20961;-78
2024/01/15 23:55:35;;;;;;;6.70;4.90;;;0.10;99.90;;;;;;4978824;28;20444;-79
2024/01/15 23:58:14;;;;;;;6.77;5.60;;;0.30;99.90;;;;;;4978441;28;20511;-79
